sensor_id;sensor_type;location;lat;lon;timestamp;temperature;humidity
26641;DHT22;14269;47.358;0.724;2024-03-29T00:00:12;15.0;57.0
26641;DHT22;14269;47.358;0.724;2024-03-29T00:02:52;16.0;57.0
26641;DHT22;14269;47.358;0.724;2024-03-29T00:05:24;16.0;55.0
26641;DHT22;14269;47.358;0.724;2024-03-29T00:07:55;17.0;54.0
26641;DHT22;14269;47.358;0.724;2024-03-29T00:10:27;16.0;56.0
26641;DHT22;14269;47.358;0.724;2024-03-29T00:12:59;16.0;57.0
26641;DHT22;14269;47.358;0.724;2024-03-29T00:15:31;16.0;56.0
26641;DHT22;14269;47.358;0.724;2024-03-29T00:18:02;16.0;57.0
26641;DHT22;14269;47.358;0.724;2024-03-29T00:20:34;16.0;57.0
26641;DHT22;14269;47.358;0.724;2024-03-29T00:23:05;16.0;57.0
26641;DHT22;14269;47.358;0.724;2024-03-29T00:25:37;16.0;55.0
26641;DHT22;14269;47.358;0.724;2024-03-29T00:28:09;16.0;55.0
26641;DHT22;14269;47.358;0.724;2024-03-29T00:30:40;16.0;56.0
26641;DHT22;14269;47.358;0.724;2024-03-29T00:33:12;15.0;57.0
26641;DHT22;14269;47.358;0.724;2024-03-29T00:35:44;15.0;58.0
26641;DHT22;14269;47.358;0.724;2024-03-29T00:38:15;16.0;55.0
26641;DHT22;14269;47.358;0.724;2024-03-29T00:40:47;16.0;56.0
26641;DHT22;14269;47.358;0.724;2024-03-29T00:43:18;16.0;55.0
26641;DHT22;14269;47.358;0.724;2024-03-29T00:45:50;17.0;54.0
26641;DHT22;14269;47.358;0.724;2024-03-29T00:48:22;16.0;55.0
26641;DHT22;14269;47.358;0.724;2024-03-29T00:50:54;17.0;52.0
26641;DHT22;14269;47.358;0.724;2024-03-29T00:53:25;17.0;53.0
26641;DHT22;14269;47.358;0.724;2024-03-29T00:55:57;16.0;55.0
26641;DHT22;14269;47.358;0.724;2024-03-29T00:58:29;16.0;55.0
26641;DHT22;14269;47.358;0.724;2024-03-29T01:01:00;17.0;53.0
26641;DHT22;14269;47.358;0.724;2024-03-29T01:03:32;16.0;55.0
26641;DHT22;14269;47.358;0.724;2024-03-29T01:06:04;16.0;55.0
26641;DHT22;14269;47.358;0.724;2024-03-29T01:08:35;16.0;55.0
26641;DHT22;14269;47.358;0.724;2024-03-29T01:11:07;16.0;55.0
26641;DHT22;14269;47.358;0.724;2024-03-29T01:13:38;16.0;56.0
26641;DHT22;14269;47.358;0.724;2024-03-29T01:16:10;16.0;56.0
26641;DHT22;14269;47.358;0.724;2024-03-29T01:18:43;16.0;57.0
26641;DHT22;14269;47.358;0.724;2024-03-29T01:21:24;16.0;55.0
26641;DHT22;14269;47.358;0.724;2024-03-29T01:23:55;16.0;56.0
26641;DHT22;14269;47.358;0.724;2024-03-29T01:26:27;16.0;55.0
26641;DHT22;14269;47.358;0.724;2024-03-29T01:28:58;17.0;54.0
26641;DHT22;14269;47.358;0.724;2024-03-29T01:31:30;17.0;53.0
26641;DHT22;14269;47.358;0.724;2024-03-29T01:34:02;16.0;55.0
26641;DHT22;14269;47.358;0.724;2024-03-29T01:36:33;17.0;54.0
26641;DHT22;14269;47.358;0.724;2024-03-29T01:39:05;17.0;54.0
26641;DHT22;14269;47.358;0.724;2024-03-29T01:41:47;17.0;53.0
26641;DHT22;14269;47.358;0.724;2024-03-29T01:44:18;17.0;53.0
26641;DHT22;14269;47.358;0.724;2024-03-29T01:46:50;17.0;53.0
26641;DHT22;14269;47.358;0.724;2024-03-29T01:49:22;18.0;51.0
26641;DHT22;14269;47.358;0.724;2024-03-29T01:51:53;16.0;55.0
26641;DHT22;14269;47.358;0.724;2024-03-29T01:54:25;16.0;54.0
26641;DHT22;14269;47.358;0.724;2024-03-29T01:56:57;16.0;55.0
26641;DHT22;14269;47.358;0.724;2024-03-29T01:59:28;17.0;52.0
26641;DHT22;14269;47.358;0.724;2024-03-29T02:02:00;17.0;54.0
26641;DHT22;14269;47.358;0.724;2024-03-29T02:04:31;16.0;55.0
26641;DHT22;14269;47.358;0.724;2024-03-29T02:07:03;17.0;53.0
26641;DHT22;14269;47.358;0.724;2024-03-29T02:09:35;17.0;52.0
26641;DHT22;14269;47.358;0.724;2024-03-29T02:12:07;17.0;54.0
26641;DHT22;14269;47.358;0.724;2024-03-29T02:14:39;17.0;52.0
26641;DHT22;14269;47.358;0.724;2024-03-29T02:17:20;17.0;52.0
26641;DHT22;14269;47.358;0.724;2024-03-29T02:20:55;17.0;53.0
26641;DHT22;14269;47.358;0.724;2024-03-29T02:23:37;17.0;53.0
26641;DHT22;14269;47.358;0.724;2024-03-29T02:26:16;17.0;53.0
26641;DHT22;14269;47.358;0.724;2024-03-29T02:28:47;17.0;54.0
26641;DHT22;14269;47.358;0.724;2024-03-29T02:31:19;17.0;52.0
26641;DHT22;14269;47.358;0.724;2024-03-29T02:33:50;17.0;53.0
26641;DHT22;14269;47.358;0.724;2024-03-29T02:36:22;17.0;52.0
26641;DHT22;14269;47.358;0.724;2024-03-29T02:38:54;18.0;51.0
26641;DHT22;14269;47.358;0.724;2024-03-29T02:41:26;18.0;50.0
26641;DHT22;14269;47.358;0.724;2024-03-29T02:44:07;18.0;50.0
26641;DHT22;14269;47.358;0.724;2024-03-29T02:46:39;17.0;52.0
26641;DHT22;14269;47.358;0.724;2024-03-29T02:49:10;17.0;53.0
26641;DHT22;14269;47.358;0.724;2024-03-29T02:51:42;17.0;53.0
26641;DHT22;14269;47.358;0.724;2024-03-29T02:54:14;17.0;53.0
26641;DHT22;14269;47.358;0.724;2024-03-29T02:56:45;17.0;54.0
26641;DHT22;14269;47.358;0.724;2024-03-29T02:59:17;16.0;55.0
26641;DHT22;14269;47.358;0.724;2024-03-29T03:01:49;17.0;54.0
26641;DHT22;14269;47.358;0.724;2024-03-29T03:04:20;17.0;53.0
26641;DHT22;14269;47.358;0.724;2024-03-29T03:06:52;18.0;51.0
26641;DHT22;14269;47.358;0.724;2024-03-29T03:11:45;18.0;51.0
26641;DHT22;14269;47.358;0.724;2024-03-29T03:14:17;17.0;52.0
26641;DHT22;14269;47.358;0.724;2024-03-29T03:16:48;18.0;53.0
26641;DHT22;14269;47.358;0.724;2024-03-29T03:19:20;17.0;54.0
26641;DHT22;14269;47.358;0.724;2024-03-29T03:21:52;17.0;54.0
26641;DHT22;14269;47.358;0.724;2024-03-29T03:24:23;17.0;54.0
26641;DHT22;14269;47.358;0.724;2024-03-29T03:26:55;17.0;55.0
26641;DHT22;14269;47.358;0.724;2024-03-29T03:29:27;17.0;56.0
26641;DHT22;14269;47.358;0.724;2024-03-29T03:31:58;17.0;54.0
26641;DHT22;14269;47.358;0.724;2024-03-29T03:34:30;17.0;54.0
26641;DHT22;14269;47.358;0.724;2024-03-29T03:37:02;16.0;56.0
26641;DHT22;14269;47.358;0.724;2024-03-29T03:39:33;17.0;55.0
26641;DHT22;14269;47.358;0.724;2024-03-29T03:42:05;17.0;55.0
26641;DHT22;14269;47.358;0.724;2024-03-29T03:44:37;17.0;54.0
26641;DHT22;14269;47.358;0.724;2024-03-29T03:47:08;17.0;54.0
26641;DHT22;14269;47.358;0.724;2024-03-29T03:49:40;17.0;54.0
26641;DHT22;14269;47.358;0.724;2024-03-29T03:52:11;17.0;53.0
26641;DHT22;14269;47.358;0.724;2024-03-29T03:54:43;17.0;53.0
26641;DHT22;14269;47.358;0.724;2024-03-29T03:57:15;17.0;53.0
26641;DHT22;14269;47.358;0.724;2024-03-29T03:59:48;17.0;53.0
26641;DHT22;14269;47.358;0.724;2024-03-29T04:02:28;17.0;52.0
26641;DHT22;14269;47.358;0.724;2024-03-29T04:05:00;17.0;53.0
26641;DHT22;14269;47.358;0.724;2024-03-29T04:07:31;17.0;54.0
26641;DHT22;14269;47.358;0.724;2024-03-29T04:10:04;17.0;53.0
26641;DHT22;14269;47.358;0.724;2024-03-29T04:12:35;17.0;55.0
26641;DHT22;14269;47.358;0.724;2024-03-29T04:15:07;17.0;54.0
26641;DHT22;14269;47.358;0.724;2024-03-29T04:17:38;17.0;53.0
26641;DHT22;14269;47.358;0.724;2024-03-29T04:20:10;18.0;51.0
26641;DHT22;14269;47.358;0.724;2024-03-29T04:22:41;17.0;54.0
26641;DHT22;14269;47.358;0.724;2024-03-29T04:25:14;18.0;53.0
26641;DHT22;14269;47.358;0.724;2024-03-29T04:27:55;17.0;53.0
26641;DHT22;14269;47.358;0.724;2024-03-29T04:30:26;17.0;54.0
26641;DHT22;14269;47.358;0.724;2024-03-29T04:32:58;18.0;52.0
26641;DHT22;14269;47.358;0.724;2024-03-29T04:35:30;18.0;52.0
26641;DHT22;14269;47.358;0.724;2024-03-29T04:38:01;17.0;53.0
26641;DHT22;14269;47.358;0.724;2024-03-29T04:40:33;18.0;53.0
26641;DHT22;14269;47.358;0.724;2024-03-29T04:43:05;18.0;52.0
26641;DHT22;14269;47.358;0.724;2024-03-29T04:45:36;18.0;52.0
26641;DHT22;14269;47.358;0.724;2024-03-29T04:48:08;18.0;52.0
26641;DHT22;14269;47.358;0.724;2024-03-29T04:50:50;17.0;55.0
26641;DHT22;14269;47.358;0.724;2024-03-29T04:53:22;17.0;55.0
26641;DHT22;14269;47.358;0.724;2024-03-29T04:55:53;17.0;55.0
26641;DHT22;14269;47.358;0.724;2024-03-29T04:58:25;17.0;55.0
26641;DHT22;14269;47.358;0.724;2024-03-29T05:00:56;17.0;54.0
26641;DHT22;14269;47.358;0.724;2024-03-29T05:03:28;17.0;54.0
26641;DHT22;14269;47.358;0.724;2024-03-29T05:05:59;18.0;53.0
26641;DHT22;14269;47.358;0.724;2024-03-29T05:08:31;18.0;54.0
26641;DHT22;14269;47.358;0.724;2024-03-29T05:11:03;18.0;53.0
26641;DHT22;14269;47.358;0.724;2024-03-29T05:13:34;18.0;53.0
26641;DHT22;14269;47.358;0.724;2024-03-29T05:16:07;18.0;53.0
26641;DHT22;14269;47.358;0.724;2024-03-29T05:18:38;17.0;55.0
26641;DHT22;14269;47.358;0.724;2024-03-29T05:21:09;17.0;55.0
26641;DHT22;14269;47.358;0.724;2024-03-29T05:23:42;17.0;55.0
26641;DHT22;14269;47.358;0.724;2024-03-29T05:26:23;17.0;54.0
26641;DHT22;14269;47.358;0.724;2024-03-29T05:28:57;17.0;54.0
26641;DHT22;14269;47.358;0.724;2024-03-29T05:31:36;17.0;55.0
26641;DHT22;14269;47.358;0.724;2024-03-29T05:34:08;17.0;55.0
26641;DHT22;14269;47.358;0.724;2024-03-29T05:36:39;17.0;55.0
26641;DHT22;14269;47.358;0.724;2024-03-29T05:39:11;17.0;57.0
26641;DHT22;14269;47.358;0.724;2024-03-29T05:41:43;17.0;57.0
26641;DHT22;14269;47.358;0.724;2024-03-29T05:44:15;16.0;58.0
26641;DHT22;14269;47.358;0.724;2024-03-29T05:46:46;17.0;56.0
26641;DHT22;14269;47.358;0.724;2024-03-29T05:49:18;17.0;56.0
26641;DHT22;14269;47.358;0.724;2024-03-29T05:51:50;18.0;54.0
26641;DHT22;14269;47.358;0.724;2024-03-29T05:54:31;17.0;55.0
26641;DHT22;14269;47.358;0.724;2024-03-29T05:57:03;17.0;55.0
26641;DHT22;14269;47.358;0.724;2024-03-29T05:59:35;18.0;54.0
26641;DHT22;14269;47.358;0.724;2024-03-29T06:02:06;18.0;54.0
26641;DHT22;14269;47.358;0.724;2024-03-29T06:04:38;18.0;54.0
26641;DHT22;14269;47.358;0.724;2024-03-29T06:07:09;17.0;56.0
26641;DHT22;14269;47.358;0.724;2024-03-29T06:09:41;17.0;55.0
26641;DHT22;14269;47.358;0.724;2024-03-29T06:12:13;17.0;55.0
26641;DHT22;14269;47.358;0.724;2024-03-29T06:17:37;18.0;54.0
26641;DHT22;14269;47.358;0.724;2024-03-29T06:20:18;17.0;55.0
26641;DHT22;14269;47.358;0.724;2024-03-29T06:22:49;17.0;54.0
26641;DHT22;14269;47.358;0.724;2024-03-29T06:25:21;17.0;56.0
26641;DHT22;14269;47.358;0.724;2024-03-29T06:27:53;17.0;56.0
26641;DHT22;14269;47.358;0.724;2024-03-29T06:30:24;18.0;55.0
26641;DHT22;14269;47.358;0.724;2024-03-29T06:32:56;17.0;55.0
26641;DHT22;14269;47.358;0.724;2024-03-29T06:35:28;18.0;54.0
26641;DHT22;14269;47.358;0.724;2024-03-29T06:37:59;18.0;54.0
26641;DHT22;14269;47.358;0.724;2024-03-29T06:40:31;18.0;53.0
26641;DHT22;14269;47.358;0.724;2024-03-29T06:43:04;18.0;53.0
26641;DHT22;14269;47.358;0.724;2024-03-29T06:45:44;18.0;54.0
26641;DHT22;14269;47.358;0.724;2024-03-29T06:48:16;17.0;55.0
26641;DHT22;14269;47.358;0.724;2024-03-29T06:50:49;18.0;54.0
26641;DHT22;14269;47.358;0.724;2024-03-29T06:53:29;18.0;53.0
26641;DHT22;14269;47.358;0.724;2024-03-29T06:56:01;17.0;55.0
26641;DHT22;14269;47.358;0.724;2024-03-29T06:58:33;17.0;55.0
26641;DHT22;14269;47.358;0.724;2024-03-29T07:01:04;18.0;54.0
26641;DHT22;14269;47.358;0.724;2024-03-29T07:03:36;18.0;54.0
26641;DHT22;14269;47.358;0.724;2024-03-29T07:06:08;18.0;55.0
26641;DHT22;14269;47.358;0.724;2024-03-29T07:08:39;17.0;57.0
26641;DHT22;14269;47.358;0.724;2024-03-29T07:11:11;17.0;58.0
26641;DHT22;14269;47.358;0.724;2024-03-29T07:13:43;17.0;56.0
26641;DHT22;14269;47.358;0.724;2024-03-29T07:16:14;18.0;55.0
26641;DHT22;14269;47.358;0.724;2024-03-29T07:18:46;17.0;56.0
26641;DHT22;14269;47.358;0.724;2024-03-29T07:21:18;17.0;57.0
26641;DHT22;14269;47.358;0.724;2024-03-29T07:23:49;17.0;57.0
26641;DHT22;14269;47.358;0.724;2024-03-29T07:26:21;18.0;55.0
26641;DHT22;14269;47.358;0.724;2024-03-29T07:28:52;19.0;53.0
26641;DHT22;14269;47.358;0.724;2024-03-29T07:31:24;18.0;54.0
26641;DHT22;14269;47.358;0.724;2024-03-29T07:33:56;18.0;55.0
26641;DHT22;14269;47.358;0.724;2024-03-29T07:36:31;18.0;54.0
26641;DHT22;14269;47.358;0.724;2024-03-29T07:39:09;17.0;56.0
26641;DHT22;14269;47.358;0.724;2024-03-29T07:41:41;17.0;56.0
26641;DHT22;14269;47.358;0.724;2024-03-29T07:44:12;17.0;55.0
26641;DHT22;14269;47.358;0.724;2024-03-29T07:46:46;17.0;55.0
26641;DHT22;14269;47.358;0.724;2024-03-29T07:49:26;18.0;54.0
26641;DHT22;14269;47.358;0.724;2024-03-29T07:51:57;18.0;52.0
26641;DHT22;14269;47.358;0.724;2024-03-29T07:54:39;18.0;53.0
26641;DHT22;14269;47.358;0.724;2024-03-29T07:57:14;18.0;53.0
26641;DHT22;14269;47.358;0.724;2024-03-29T07:59:53;18.0;54.0
26641;DHT22;14269;47.358;0.724;2024-03-29T08:02:24;18.0;55.0
26641;DHT22;14269;47.358;0.724;2024-03-29T08:04:56;17.0;56.0
26641;DHT22;14269;47.358;0.724;2024-03-29T08:07:28;17.0;57.0
26641;DHT22;14269;47.358;0.724;2024-03-29T08:09:59;16.0;59.0
26641;DHT22;14269;47.358;0.724;2024-03-29T08:12:31;17.0;57.0
26641;DHT22;14269;47.358;0.724;2024-03-29T08:15:13;18.0;54.0
26641;DHT22;14269;47.358;0.724;2024-03-29T08:17:45;18.0;55.0
26641;DHT22;14269;47.358;0.724;2024-03-29T08:20:16;18.0;54.0
26641;DHT22;14269;47.358;0.724;2024-03-29T08:22:59;18.0;53.0
26641;DHT22;14269;47.358;0.724;2024-03-29T08:25:39;18.0;54.0
26641;DHT22;14269;47.358;0.724;2024-03-29T08:28:11;18.0;54.0
26641;DHT22;14269;47.358;0.724;2024-03-29T08:30:43;18.0;54.0
26641;DHT22;14269;47.358;0.724;2024-03-29T08:33:14;18.0;54.0
26641;DHT22;14269;47.358;0.724;2024-03-29T08:35:46;18.0;54.0
26641;DHT22;14269;47.358;0.724;2024-03-29T08:38:18;18.0;55.0
26641;DHT22;14269;47.358;0.724;2024-03-29T08:40:49;18.0;55.0
26641;DHT22;14269;47.358;0.724;2024-03-29T08:43:21;18.0;54.0
26641;DHT22;14269;47.358;0.724;2024-03-29T08:45:53;18.0;54.0
26641;DHT22;14269;47.358;0.724;2024-03-29T08:48:26;18.0;54.0
26641;DHT22;14269;47.358;0.724;2024-03-29T08:51:06;19.0;53.0
26641;DHT22;14269;47.358;0.724;2024-03-29T08:53:38;18.0;54.0
26641;DHT22;14269;47.358;0.724;2024-03-29T08:56:09;17.0;55.0
26641;DHT22;14269;47.358;0.724;2024-03-29T08:58:41;18.0;53.0
26641;DHT22;14269;47.358;0.724;2024-03-29T09:01:14;18.0;54.0
26641;DHT22;14269;47.358;0.724;2024-03-29T09:03:54;18.0;52.0
26641;DHT22;14269;47.358;0.724;2024-03-29T09:06:26;18.0;53.0
26641;DHT22;14269;47.358;0.724;2024-03-29T09:08:58;18.0;53.0
26641;DHT22;14269;47.358;0.724;2024-03-29T09:11:29;18.0;53.0
26641;DHT22;14269;47.358;0.724;2024-03-29T09:14:02;18.0;52.0
26641;DHT22;14269;47.358;0.724;2024-03-29T09:16:43;18.0;51.0
26641;DHT22;14269;47.358;0.724;2024-03-29T09:19:14;19.0;49.0
26641;DHT22;14269;47.358;0.724;2024-03-29T09:21:46;19.0;48.0
26641;DHT22;14269;47.358;0.724;2024-03-29T09:24:18;19.0;49.0
26641;DHT22;14269;47.358;0.724;2024-03-29T09:26:49;19.0;50.0
26641;DHT22;14269;47.358;0.724;2024-03-29T09:29:21;20.0;47.0
26641;DHT22;14269;47.358;0.724;2024-03-29T09:31:52;20.0;48.0
26641;DHT22;14269;47.358;0.724;2024-03-29T09:34:24;19.0;48.0
26641;DHT22;14269;47.358;0.724;2024-03-29T09:36:56;18.0;50.0
26641;DHT22;14269;47.358;0.724;2024-03-29T09:39:39;18.0;50.0
26641;DHT22;14269;47.358;0.724;2024-03-29T09:42:22;20.0;47.0
26641;DHT22;14269;47.358;0.724;2024-03-29T09:45:03;19.0;48.0
26641;DHT22;14269;47.358;0.724;2024-03-29T09:47:43;20.0;46.0
26641;DHT22;14269;47.358;0.724;2024-03-29T09:50:15;18.0;50.0
26641;DHT22;14269;47.358;0.724;2024-03-29T09:52:48;18.0;50.0
26641;DHT22;14269;47.358;0.724;2024-03-29T09:55:28;19.0;49.0
26641;DHT22;14269;47.358;0.724;2024-03-29T09:58:00;19.0;50.0
26641;DHT22;14269;47.358;0.724;2024-03-29T10:00:31;18.0;50.0
26641;DHT22;14269;47.358;0.724;2024-03-29T10:03:03;20.0;48.0
26641;DHT22;14269;47.358;0.724;2024-03-29T10:05:45;19.0;50.0
26641;DHT22;14269;47.358;0.724;2024-03-29T10:08:16;18.0;50.0
26641;DHT22;14269;47.358;0.724;2024-03-29T10:10:49;19.0;48.0
26641;DHT22;14269;47.358;0.724;2024-03-29T10:13:30;19.0;48.0
26641;DHT22;14269;47.358;0.724;2024-03-29T10:16:03;20.0;47.0
26641;DHT22;14269;47.358;0.724;2024-03-29T10:18:47;19.0;49.0
26641;DHT22;14269;47.358;0.724;2024-03-29T10:21:25;19.0;48.0
26641;DHT22;14269;47.358;0.724;2024-03-29T10:24:14;18.0;50.0
26641;DHT22;14269;47.358;0.724;2024-03-29T10:26:48;18.0;50.0
26641;DHT22;14269;47.358;0.724;2024-03-29T10:29:20;19.0;48.0
26641;DHT22;14269;47.358;0.724;2024-03-29T10:31:52;19.0;47.0
26641;DHT22;14269;47.358;0.724;2024-03-29T10:34:24;19.0;47.0
26641;DHT22;14269;47.358;0.724;2024-03-29T10:37:05;19.0;47.0
26641;DHT22;14269;47.358;0.724;2024-03-29T10:39:42;19.0;46.0
26641;DHT22;14269;47.358;0.724;2024-03-29T10:42:20;19.0;46.0
26641;DHT22;14269;47.358;0.724;2024-03-29T10:45:01;20.0;43.0
26641;DHT22;14269;47.358;0.724;2024-03-29T10:47:44;20.0;44.0
26641;DHT22;14269;47.358;0.724;2024-03-29T10:50:25;20.0;43.0
26641;DHT22;14269;47.358;0.724;2024-03-29T10:53:05;19.0;45.0
26641;DHT22;14269;47.358;0.724;2024-03-29T10:55:37;19.0;45.0
26641;DHT22;14269;47.358;0.724;2024-03-29T10:58:11;18.0;45.0
26641;DHT22;14269;47.358;0.724;2024-03-29T11:00:55;19.0;44.0
26641;DHT22;14269;47.358;0.724;2024-03-29T11:03:37;21.0;42.0
26641;DHT22;14269;47.358;0.724;2024-03-29T11:06:15;19.0;45.0
26641;DHT22;14269;47.358;0.724;2024-03-29T11:08:47;19.0;46.0
26641;DHT22;14269;47.358;0.724;2024-03-29T11:11:31;19.0;44.0
26641;DHT22;14269;47.358;0.724;2024-03-29T11:14:14;20.0;42.0
26641;DHT22;14269;47.358;0.724;2024-03-29T11:16:55;20.0;43.0
26641;DHT22;14269;47.358;0.724;2024-03-29T11:19:33;21.0;40.0
26641;DHT22;14269;47.358;0.724;2024-03-29T11:22:04;20.0;41.0
26641;DHT22;14269;47.358;0.724;2024-03-29T11:24:38;20.0;41.0
26641;DHT22;14269;47.358;0.724;2024-03-29T11:27:22;20.0;41.0
26641;DHT22;14269;47.358;0.724;2024-03-29T11:30:01;20.0;41.0
26641;DHT22;14269;47.358;0.724;2024-03-29T11:32:41;20.0;42.0
26641;DHT22;14269;47.358;0.724;2024-03-29T11:35:14;19.0;42.0
26641;DHT22;14269;47.358;0.724;2024-03-29T11:37:56;20.0;40.0
26641;DHT22;14269;47.358;0.724;2024-03-29T11:40:36;22.0;38.0
26641;DHT22;14269;47.358;0.724;2024-03-29T11:43:08;22.0;38.0
26641;DHT22;14269;47.358;0.724;2024-03-29T11:45:40;21.0;39.0
26641;DHT22;14269;47.358;0.724;2024-03-29T11:48:14;20.0;42.0
26641;DHT22;14269;47.358;0.724;2024-03-29T11:50:54;22.0;39.0
26641;DHT22;14269;47.358;0.724;2024-03-29T11:53:35;21.0;40.0
26641;DHT22;14269;47.358;0.724;2024-03-29T11:56:07;22.0;38.0
26641;DHT22;14269;47.358;0.724;2024-03-29T11:58:39;22.0;38.0
26641;DHT22;14269;47.358;0.724;2024-03-29T12:01:10;21.0;40.0
26641;DHT22;14269;47.358;0.724;2024-03-29T12:03:52;20.0;41.0
26641;DHT22;14269;47.358;0.724;2024-03-29T12:06:23;20.0;42.0
26641;DHT22;14269;47.358;0.724;2024-03-29T12:08:56;21.0;40.0
26641;DHT22;14269;47.358;0.724;2024-03-29T12:11:36;21.0;40.0
26641;DHT22;14269;47.358;0.724;2024-03-29T12:14:11;21.0;41.0
26641;DHT22;14269;47.358;0.724;2024-03-29T12:16:50;21.0;40.0
26641;DHT22;14269;47.358;0.724;2024-03-29T12:19:23;21.0;40.0
26641;DHT22;14269;47.358;0.724;2024-03-29T12:22:04;21.0;40.0
26641;DHT22;14269;47.358;0.724;2024-03-29T12:24:35;21.0;39.0
26641;DHT22;14269;47.358;0.724;2024-03-29T12:27:08;20.0;42.0
26641;DHT22;14269;47.358;0.724;2024-03-29T12:29:48;20.0;41.0
26641;DHT22;14269;47.358;0.724;2024-03-29T12:32:20;20.0;40.0
26641;DHT22;14269;47.358;0.724;2024-03-29T12:34:52;20.0;40.0
26641;DHT22;14269;47.358;0.724;2024-03-29T12:37:26;21.0;39.0
26641;DHT22;14269;47.358;0.724;2024-03-29T12:40:12;21.0;41.0
26641;DHT22;14269;47.358;0.724;2024-03-29T12:42:47;21.0;40.0
26641;DHT22;14269;47.358;0.724;2024-03-29T12:45:19;21.0;41.0
26641;DHT22;14269;47.358;0.724;2024-03-29T12:47:50;20.0;41.0
26641;DHT22;14269;47.358;0.724;2024-03-29T12:50:25;19.0;43.0
26641;DHT22;14269;47.358;0.724;2024-03-29T12:53:06;20.0;42.0
26641;DHT22;14269;47.358;0.724;2024-03-29T12:55:47;20.0;41.0
26641;DHT22;14269;47.358;0.724;2024-03-29T12:58:27;20.0;42.0
26641;DHT22;14269;47.358;0.724;2024-03-29T13:00:58;19.0;42.0
26641;DHT22;14269;47.358;0.724;2024-03-29T13:03:30;20.0;42.0
26641;DHT22;14269;47.358;0.724;2024-03-29T13:06:02;20.0;43.0
26641;DHT22;14269;47.358;0.724;2024-03-29T13:08:35;21.0;41.0
26641;DHT22;14269;47.358;0.724;2024-03-29T13:11:15;19.0;44.0
26641;DHT22;14269;47.358;0.724;2024-03-29T13:13:47;20.0;43.0
26641;DHT22;14269;47.358;0.724;2024-03-29T13:16:19;20.0;42.0
26641;DHT22;14269;47.358;0.724;2024-03-29T13:18:50;20.0;43.0
26641;DHT22;14269;47.358;0.724;2024-03-29T13:21:22;20.0;42.0
26641;DHT22;14269;47.358;0.724;2024-03-29T13:23:54;21.0;40.0
26641;DHT22;14269;47.358;0.724;2024-03-29T13:26:25;21.0;40.0
26641;DHT22;14269;47.358;0.724;2024-03-29T13:28:57;21.0;41.0
26641;DHT22;14269;47.358;0.724;2024-03-29T13:31:29;21.0;39.0
26641;DHT22;14269;47.358;0.724;2024-03-29T13:34:12;21.0;40.0
26641;DHT22;14269;47.358;0.724;2024-03-29T13:36:52;21.0;39.0
26641;DHT22;14269;47.358;0.724;2024-03-29T13:39:24;20.0;40.0
26641;DHT22;14269;47.358;0.724;2024-03-29T13:41:55;21.0;38.0
26641;DHT22;14269;47.358;0.724;2024-03-29T13:44:27;21.0;39.0
26641;DHT22;14269;47.358;0.724;2024-03-29T13:46:58;21.0;38.0
26641;DHT22;14269;47.358;0.724;2024-03-29T13:49:32;22.0;38.0
26641;DHT22;14269;47.358;0.724;2024-03-29T13:52:12;21.0;40.0
26641;DHT22;14269;47.358;0.724;2024-03-29T13:54:54;21.0;39.0
26641;DHT22;14269;47.358;0.724;2024-03-29T13:57:25;20.0;41.0
26641;DHT22;14269;47.358;0.724;2024-03-29T13:59:58;21.0;40.0
26641;DHT22;14269;47.358;0.724;2024-03-29T14:02:39;19.0;45.0
26641;DHT22;14269;47.358;0.724;2024-03-29T14:05:10;19.0;45.0
26641;DHT22;14269;47.358;0.724;2024-03-29T14:07:52;19.0;44.0
26641;DHT22;14269;47.358;0.724;2024-03-29T14:10:24;19.0;44.0
26641;DHT22;14269;47.358;0.724;2024-03-29T14:12:57;20.0;44.0
26641;DHT22;14269;47.358;0.724;2024-03-29T14:15:37;19.0;43.0
26641;DHT22;14269;47.358;0.724;2024-03-29T14:18:09;20.0;43.0
26641;DHT22;14269;47.358;0.724;2024-03-29T14:20:41;20.0;43.0
26641;DHT22;14269;47.358;0.724;2024-03-29T14:23:15;19.0;44.0
26641;DHT22;14269;47.358;0.724;2024-03-29T14:25:54;18.0;46.0
26641;DHT22;14269;47.358;0.724;2024-03-29T14:28:26;19.0;45.0
26641;DHT22;14269;47.358;0.724;2024-03-29T14:30:57;19.0;44.0
26641;DHT22;14269;47.358;0.724;2024-03-29T14:33:29;20.0;43.0
26641;DHT22;14269;47.358;0.724;2024-03-29T14:36:00;19.0;45.0
26641;DHT22;14269;47.358;0.724;2024-03-29T14:38:32;19.0;45.0
26641;DHT22;14269;47.358;0.724;2024-03-29T14:41:04;19.0;45.0
26641;DHT22;14269;47.358;0.724;2024-03-29T14:43:36;18.0;47.0
26641;DHT22;14269;47.358;0.724;2024-03-29T14:46:17;19.0;45.0
26641;DHT22;14269;47.358;0.724;2024-03-29T14:48:49;19.0;43.0
26641;DHT22;14269;47.358;0.724;2024-03-29T14:51:21;20.0;42.0
26641;DHT22;14269;47.358;0.724;2024-03-29T14:53:52;19.0;43.0
26641;DHT22;14269;47.358;0.724;2024-03-29T14:56:24;19.0;43.0
26641;DHT22;14269;47.358;0.724;2024-03-29T14:58:55;19.0;44.0
26641;DHT22;14269;47.358;0.724;2024-03-29T15:01:27;18.0;45.0
26641;DHT22;14269;47.358;0.724;2024-03-29T15:03:59;19.0;44.0
26641;DHT22;14269;47.358;0.724;2024-03-29T15:06:30;18.0;44.0
26641;DHT22;14269;47.358;0.724;2024-03-29T15:09:04;19.0;42.0
26641;DHT22;14269;47.358;0.724;2024-03-29T15:11:44;19.0;44.0
26641;DHT22;14269;47.358;0.724;2024-03-29T15:14:16;18.0;45.0
26641;DHT22;14269;47.358;0.724;2024-03-29T15:16:49;18.0;45.0
26641;DHT22;14269;47.358;0.724;2024-03-29T15:19:29;19.0;44.0
26641;DHT22;14269;47.358;0.724;2024-03-29T15:22:00;19.0;43.0
26641;DHT22;14269;47.358;0.724;2024-03-29T15:24:32;19.0;43.0
26641;DHT22;14269;47.358;0.724;2024-03-29T15:27:04;19.0;44.0
26641;DHT22;14269;47.358;0.724;2024-03-29T15:29:45;19.0;44.0
26641;DHT22;14269;47.358;0.724;2024-03-29T15:32:17;18.0;45.0
26641;DHT22;14269;47.358;0.724;2024-03-29T15:34:49;19.0;44.0
26641;DHT22;14269;47.358;0.724;2024-03-29T15:37:21;19.0;45.0
26641;DHT22;14269;47.358;0.724;2024-03-29T15:40:03;19.0;46.0
26641;DHT22;14269;47.358;0.724;2024-03-29T15:42:44;18.0;48.0
26641;DHT22;14269;47.358;0.724;2024-03-29T15:45:15;18.0;48.0
26641;DHT22;14269;47.358;0.724;2024-03-29T15:47:47;18.0;47.0
26641;DHT22;14269;47.358;0.724;2024-03-29T15:50:19;19.0;47.0
26641;DHT22;14269;47.358;0.724;2024-03-29T15:52:50;19.0;47.0
26641;DHT22;14269;47.358;0.724;2024-03-29T15:55:22;18.0;48.0
26641;DHT22;14269;47.358;0.724;2024-03-29T15:57:54;18.0;48.0
26641;DHT22;14269;47.358;0.724;2024-03-29T16:00:30;18.0;49.0
26641;DHT22;14269;47.358;0.724;2024-03-29T16:03:07;18.0;49.0
26641;DHT22;14269;47.358;0.724;2024-03-29T16:05:40;19.0;48.0
26641;DHT22;14269;47.358;0.724;2024-03-29T16:08:22;18.0;49.0
26641;DHT22;14269;47.358;0.724;2024-03-29T16:11:04;18.0;50.0
26641;DHT22;14269;47.358;0.724;2024-03-29T16:13:44;18.0;50.0
26641;DHT22;14269;47.358;0.724;2024-03-29T16:16:16;19.0;49.0
26641;DHT22;14269;47.358;0.724;2024-03-29T16:18:47;19.0;48.0
26641;DHT22;14269;47.358;0.724;2024-03-29T16:21:19;19.0;49.0
26641;DHT22;14269;47.358;0.724;2024-03-29T16:23:51;18.0;51.0
26641;DHT22;14269;47.358;0.724;2024-03-29T16:26:22;19.0;50.0
26641;DHT22;14269;47.358;0.724;2024-03-29T16:28:56;19.0;50.0
26641;DHT22;14269;47.358;0.724;2024-03-29T16:31:36;18.0;51.0
26641;DHT22;14269;47.358;0.724;2024-03-29T16:34:07;17.0;53.0
26641;DHT22;14269;47.358;0.724;2024-03-29T16:36:39;17.0;53.0
26641;DHT22;14269;47.358;0.724;2024-03-29T16:39:10;19.0;50.0
26641;DHT22;14269;47.358;0.724;2024-03-29T16:41:43;18.0;51.0
26641;DHT22;14269;47.358;0.724;2024-03-29T16:44:24;18.0;53.0
26641;DHT22;14269;47.358;0.724;2024-03-29T16:46:55;18.0;52.0
26641;DHT22;14269;47.358;0.724;2024-03-29T16:49:27;18.0;52.0